sensor_id;sensor_type;location;lat;lon;timestamp;temperature;humidity
24148;DHT22;12309;51.450;-2.624;2023-04-06T00:01:41;11.40;99.90
24148;DHT22;12309;51.450;-2.624;2023-04-06T00:04:06;10.70;99.90
24148;DHT22;12309;51.450;-2.624;2023-04-06T00:06:33;10.80;99.90
24148;DHT22;12309;51.450;-2.624;2023-04-06T00:08:59;10.80;99.90
24148;DHT22;12309;51.450;-2.624;2023-04-06T00:11:25;10.80;99.90
24148;DHT22;12309;51.450;-2.624;2023-04-06T00:13:51;10.80;99.90
24148;DHT22;12309;51.450;-2.624;2023-04-06T00:16:16;10.80;99.90
24148;DHT22;12309;51.450;-2.624;2023-04-06T00:18:42;10.90;99.90
24148;DHT22;12309;51.450;-2.624;2023-04-06T00:21:08;10.90;99.90
24148;DHT22;12309;51.450;-2.624;2023-04-06T00:25:59;10.90;99.90
24148;DHT22;12309;51.450;-2.624;2023-04-06T00:28:25;10.90;99.90
24148;DHT22;12309;51.450;-2.624;2023-04-06T00:30:54;10.80;99.90
24148;DHT22;12309;51.450;-2.624;2023-04-06T00:33:21;10.80;99.90
24148;DHT22;12309;51.450;-2.624;2023-04-06T00:35:47;10.80;99.90
24148;DHT22;12309;51.450;-2.624;2023-04-06T00:40:38;10.80;99.90
24148;DHT22;12309;51.450;-2.624;2023-04-06T00:43:07;10.80;99.90
24148;DHT22;12309;51.450;-2.624;2023-04-06T00:45:34;10.80;99.90
24148;DHT22;12309;51.450;-2.624;2023-04-06T00:48:00;10.80;99.90
24148;DHT22;12309;51.450;-2.624;2023-04-06T00:50:27;10.80;99.90
24148;DHT22;12309;51.450;-2.624;2023-04-06T00:52:54;10.90;99.90
24148;DHT22;12309;51.450;-2.624;2023-04-06T00:55:20;10.80;99.90
24148;DHT22;12309;51.450;-2.624;2023-04-06T00:57:46;10.80;99.90
24148;DHT22;12309;51.450;-2.624;2023-04-06T01:00:13;10.90;99.90
24148;DHT22;12309;51.450;-2.624;2023-04-06T01:02:38;10.90;99.90
24148;DHT22;12309;51.450;-2.624;2023-04-06T01:05:05;10.90;99.90
24148;DHT22;12309;51.450;-2.624;2023-04-06T01:07:31;10.90;99.90
24148;DHT22;12309;51.450;-2.624;2023-04-06T01:09:57;10.90;99.90
24148;DHT22;12309;51.450;-2.624;2023-04-06T01:12:23;10.90;99.90
24148;DHT22;12309;51.450;-2.624;2023-04-06T01:14:49;11.10;99.90
24148;DHT22;12309;51.450;-2.624;2023-04-06T01:17:14;10.90;99.90
24148;DHT22;12309;51.450;-2.624;2023-04-06T01:19:40;10.90;99.90
24148;DHT22;12309;51.450;-2.624;2023-04-06T01:22:06;10.90;99.90
24148;DHT22;12309;51.450;-2.624;2023-04-06T01:24:32;11.00;99.90
24148;DHT22;12309;51.450;-2.624;2023-04-06T01:26:58;11.00;99.90
24148;DHT22;12309;51.450;-2.624;2023-04-06T01:29:24;11.00;99.90
24148;DHT22;12309;51.450;-2.624;2023-04-06T01:31:49;11.00;99.90
24148;DHT22;12309;51.450;-2.624;2023-04-06T01:34:15;11.00;99.90
24148;DHT22;12309;51.450;-2.624;2023-04-06T01:36:41;11.00;99.90
24148;DHT22;12309;51.450;-2.624;2023-04-06T01:39:07;11.00;99.90
24148;DHT22;12309;51.450;-2.624;2023-04-06T01:41:32;11.00;99.90
24148;DHT22;12309;51.450;-2.624;2023-04-06T01:43:58;10.90;99.90
24148;DHT22;12309;51.450;-2.624;2023-04-06T01:46:24;11.00;99.90
24148;DHT22;12309;51.450;-2.624;2023-04-06T01:48:49;11.00;99.90
24148;DHT22;12309;51.450;-2.624;2023-04-06T01:51:15;11.00;99.90
24148;DHT22;12309;51.450;-2.624;2023-04-06T01:56:07;11.00;99.90
24148;DHT22;12309;51.450;-2.624;2023-04-06T01:58:32;11.00;99.90
24148;DHT22;12309;51.450;-2.624;2023-04-06T02:00:59;11.00;99.90
24148;DHT22;12309;51.450;-2.624;2023-04-06T02:03:24;11.00;99.90
24148;DHT22;12309;51.450;-2.624;2023-04-06T02:05:50;10.90;99.90
24148;DHT22;12309;51.450;-2.624;2023-04-06T02:08:16;11.00;99.90
24148;DHT22;12309;51.450;-2.624;2023-04-06T02:10:41;10.50;99.90
24148;DHT22;12309;51.450;-2.624;2023-04-06T02:13:07;10.90;99.90
24148;DHT22;12309;51.450;-2.624;2023-04-06T02:15:32;10.70;99.90
24148;DHT22;12309;51.450;-2.624;2023-04-06T02:17:59;10.70;99.90
24148;DHT22;12309;51.450;-2.624;2023-04-06T02:20:24;10.70;99.90
24148;DHT22;12309;51.450;-2.624;2023-04-06T02:22:50;10.60;99.90
24148;DHT22;12309;51.450;-2.624;2023-04-06T02:25:16;10.60;99.90
24148;DHT22;12309;51.450;-2.624;2023-04-06T02:27:42;10.60;99.90
24148;DHT22;12309;51.450;-2.624;2023-04-06T02:30:08;10.70;99.90
24148;DHT22;12309;51.450;-2.624;2023-04-06T02:32:33;10.50;99.90
24148;DHT22;12309;51.450;-2.624;2023-04-06T02:35:00;10.50;99.90
24148;DHT22;12309;51.450;-2.624;2023-04-06T02:37:25;10.40;99.90
24148;DHT22;12309;51.450;-2.624;2023-04-06T02:42:17;10.40;99.90
24148;DHT22;12309;51.450;-2.624;2023-04-06T02:44:43;10.30;99.90
24148;DHT22;12309;51.450;-2.624;2023-04-06T02:47:08;10.30;99.90
24148;DHT22;12309;51.450;-2.624;2023-04-06T02:49:34;10.40;99.90
24148;DHT22;12309;51.450;-2.624;2023-04-06T02:52:00;10.30;99.90
24148;DHT22;12309;51.450;-2.624;2023-04-06T02:54:26;10.30;99.90
24148;DHT22;12309;51.450;-2.624;2023-04-06T02:56:51;10.20;99.90
24148;DHT22;12309;51.450;-2.624;2023-04-06T02:59:17;10.20;99.90
24148;DHT22;12309;51.450;-2.624;2023-04-06T03:01:42;10.20;99.90
24148;DHT22;12309;51.450;-2.624;2023-04-06T03:04:08;10.20;99.90
24148;DHT22;12309;51.450;-2.624;2023-04-06T03:06:34;10.10;99.90
24148;DHT22;12309;51.450;-2.624;2023-04-06T03:08:59;10.10;99.90
24148;DHT22;12309;51.450;-2.624;2023-04-06T03:13:52;10.10;99.90
24148;DHT22;12309;51.450;-2.624;2023-04-06T03:16:17;10.00;99.90
24148;DHT22;12309;51.450;-2.624;2023-04-06T03:18:43;10.00;99.90
24148;DHT22;12309;51.450;-2.624;2023-04-06T03:21:10;10.00;99.90
24148;DHT22;12309;51.450;-2.624;2023-04-06T03:23:36;10.00;99.90
24148;DHT22;12309;51.450;-2.624;2023-04-06T03:26:02;10.00;99.90
24148;DHT22;12309;51.450;-2.624;2023-04-06T03:28:27;10.10;99.90
24148;DHT22;12309;51.450;-2.624;2023-04-06T03:30:53;10.10;99.90
24148;DHT22;12309;51.450;-2.624;2023-04-06T03:33:19;9.80;99.90
24148;DHT22;12309;51.450;-2.624;2023-04-06T03:38:10;10.10;99.90
24148;DHT22;12309;51.450;-2.624;2023-04-06T03:40:36;10.10;99.90
24148;DHT22;12309;51.450;-2.624;2023-04-06T03:43:02;10.40;99.90
24148;DHT22;12309;51.450;-2.624;2023-04-06T03:45:27;10.20;99.90
24148;DHT22;12309;51.450;-2.624;2023-04-06T03:47:53;10.20;99.90
24148;DHT22;12309;51.450;-2.624;2023-04-06T03:50:19;10.20;99.90
24148;DHT22;12309;51.450;-2.624;2023-04-06T03:52:44;10.10;99.90
24148;DHT22;12309;51.450;-2.624;2023-04-06T03:57:36;10.30;99.90
24148;DHT22;12309;51.450;-2.624;2023-04-06T04:00:03;10.30;99.90
24148;DHT22;12309;51.450;-2.624;2023-04-06T04:04:55;10.30;99.90
24148;DHT22;12309;51.450;-2.624;2023-04-06T04:07:21;10.30;99.90
24148;DHT22;12309;51.450;-2.624;2023-04-06T04:09:46;10.30;99.90
24148;DHT22;12309;51.450;-2.624;2023-04-06T04:12:12;10.30;99.90
24148;DHT22;12309;51.450;-2.624;2023-04-06T04:17:05;10.20;99.90
24148;DHT22;12309;51.450;-2.624;2023-04-06T04:19:31;10.20;99.90
24148;DHT22;12309;51.450;-2.624;2023-04-06T04:24:23;10.60;99.90
24148;DHT22;12309;51.450;-2.624;2023-04-06T04:26:48;10.20;99.90
24148;DHT22;12309;51.450;-2.624;2023-04-06T04:29:14;10.20;99.90
24148;DHT22;12309;51.450;-2.624;2023-04-06T04:31:40;10.20;99.90
24148;DHT22;12309;51.450;-2.624;2023-04-06T04:34:06;10.10;99.90
24148;DHT22;12309;51.450;-2.624;2023-04-06T04:36:32;10.20;99.90
24148;DHT22;12309;51.450;-2.624;2023-04-06T04:38:58;10.20;99.90
24148;DHT22;12309;51.450;-2.624;2023-04-06T04:41:24;10.30;99.90
24148;DHT22;12309;51.450;-2.624;2023-04-06T04:43:49;10.20;99.90
24148;DHT22;12309;51.450;-2.624;2023-04-06T04:46:15;10.30;99.90
24148;DHT22;12309;51.450;-2.624;2023-04-06T04:48:40;10.30;99.90
24148;DHT22;12309;51.450;-2.624;2023-04-06T04:51:06;10.30;99.90
24148;DHT22;12309;51.450;-2.624;2023-04-06T04:53:32;10.20;99.90
24148;DHT22;12309;51.450;-2.624;2023-04-06T04:55:57;10.30;99.90
24148;DHT22;12309;51.450;-2.624;2023-04-06T04:58:23;10.30;99.90
24148;DHT22;12309;51.450;-2.624;2023-04-06T05:00:48;10.30;99.90
24148;DHT22;12309;51.450;-2.624;2023-04-06T05:03:20;10.20;99.90
24148;DHT22;12309;51.450;-2.624;2023-04-06T05:05:46;10.50;99.90
24148;DHT22;12309;51.450;-2.624;2023-04-06T05:08:12;10.20;99.90
24148;DHT22;12309;51.450;-2.624;2023-04-06T05:10:38;10.20;99.90
24148;DHT22;12309;51.450;-2.624;2023-04-06T05:13:03;10.20;99.90
24148;DHT22;12309;51.450;-2.624;2023-04-06T05:15:29;10.20;99.90
24148;DHT22;12309;51.450;-2.624;2023-04-06T05:17:54;10.20;99.90
24148;DHT22;12309;51.450;-2.624;2023-04-06T05:20:20;10.30;99.90
24148;DHT22;12309;51.450;-2.624;2023-04-06T05:22:46;10.30;99.90
24148;DHT22;12309;51.450;-2.624;2023-04-06T05:25:13;10.40;99.90
24148;DHT22;12309;51.450;-2.624;2023-04-06T05:27:38;10.20;99.90
24148;DHT22;12309;51.450;-2.624;2023-04-06T05:30:05;10.30;99.90
24148;DHT22;12309;51.450;-2.624;2023-04-06T05:32:31;10.40;99.90
24148;DHT22;12309;51.450;-2.624;2023-04-06T05:34:57;10.30;99.90
24148;DHT22;12309;51.450;-2.624;2023-04-06T05:37:22;10.40;99.90
24148;DHT22;12309;51.450;-2.624;2023-04-06T05:42:15;10.30;99.90
24148;DHT22;12309;51.450;-2.624;2023-04-06T05:44:41;10.30;99.90
24148;DHT22;12309;51.450;-2.624;2023-04-06T05:49:32;10.10;99.90
24148;DHT22;12309;51.450;-2.624;2023-04-06T05:51:58;10.40;99.90
24148;DHT22;12309;51.450;-2.624;2023-04-06T05:54:24;10.20;99.90
24148;DHT22;12309;51.450;-2.624;2023-04-06T05:56:49;10.40;99.90
24148;DHT22;12309;51.450;-2.624;2023-04-06T05:59:15;10.50;99.90
24148;DHT22;12309;51.450;-2.624;2023-04-06T06:01:40;10.50;99.90
24148;DHT22;12309;51.450;-2.624;2023-04-06T06:04:06;10.40;99.90
24148;DHT22;12309;51.450;-2.624;2023-04-06T06:06:32;10.50;99.90
24148;DHT22;12309;51.450;-2.624;2023-04-06T06:08:57;10.50;99.90
24148;DHT22;12309;51.450;-2.624;2023-04-06T06:11:27;10.40;99.90
24148;DHT22;12309;51.450;-2.624;2023-04-06T06:13:52;10.40;99.90
24148;DHT22;12309;51.450;-2.624;2023-04-06T06:16:19;9.70;99.90
24148;DHT22;12309;51.450;-2.624;2023-04-06T06:21:11;10.40;99.90
24148;DHT22;12309;51.450;-2.624;2023-04-06T06:23:38;10.50;99.90
24148;DHT22;12309;51.450;-2.624;2023-04-06T06:28:30;10.50;99.90
24148;DHT22;12309;51.450;-2.624;2023-04-06T06:30:56;10.60;99.90
24148;DHT22;12309;51.450;-2.624;2023-04-06T06:33:21;10.50;99.90
24148;DHT22;12309;51.450;-2.624;2023-04-06T06:35:47;10.60;99.90
24148;DHT22;12309;51.450;-2.624;2023-04-06T06:38:13;10.60;99.90
24148;DHT22;12309;51.450;-2.624;2023-04-06T06:40:39;10.70;99.90
24148;DHT22;12309;51.450;-2.624;2023-04-06T06:45:31;10.90;99.90
24148;DHT22;12309;51.450;-2.624;2023-04-06T06:47:57;11.20;99.90
24148;DHT22;12309;51.450;-2.624;2023-04-06T06:50:22;11.50;99.90
24148;DHT22;12309;51.450;-2.624;2023-04-06T06:55:14;11.30;99.90
24148;DHT22;12309;51.450;-2.624;2023-04-06T06:57:40;11.40;99.90
24148;DHT22;12309;51.450;-2.624;2023-04-06T07:00:08;11.40;99.90
24148;DHT22;12309;51.450;-2.624;2023-04-06T07:02:34;11.30;99.90
24148;DHT22;12309;51.450;-2.624;2023-04-06T07:05:01;11.10;99.90
24148;DHT22;12309;51.450;-2.624;2023-04-06T07:07:27;11.20;99.90
24148;DHT22;12309;51.450;-2.624;2023-04-06T07:12:18;11.10;99.90
24148;DHT22;12309;51.450;-2.624;2023-04-06T07:14:44;11.10;99.90
24148;DHT22;12309;51.450;-2.624;2023-04-06T07:17:10;11.10;99.90
24148;DHT22;12309;51.450;-2.624;2023-04-06T07:19:36;11.00;99.90
24148;DHT22;12309;51.450;-2.624;2023-04-06T07:22:02;11.00;99.90
24148;DHT22;12309;51.450;-2.624;2023-04-06T07:24:28;10.90;99.90
24148;DHT22;12309;51.450;-2.624;2023-04-06T07:26:55;11.00;99.90
24148;DHT22;12309;51.450;-2.624;2023-04-06T07:29:21;10.80;99.90
24148;DHT22;12309;51.450;-2.624;2023-04-06T07:34:15;10.80;99.90
24148;DHT22;12309;51.450;-2.624;2023-04-06T07:36:40;10.80;99.90
24148;DHT22;12309;51.450;-2.624;2023-04-06T07:39:07;10.70;99.90
24148;DHT22;12309;51.450;-2.624;2023-04-06T07:41:32;10.80;99.90
24148;DHT22;12309;51.450;-2.624;2023-04-06T07:43:58;10.60;99.90
24148;DHT22;12309;51.450;-2.624;2023-04-06T07:46:24;10.70;99.90
24148;DHT22;12309;51.450;-2.624;2023-04-06T07:48:50;10.80;99.90
24148;DHT22;12309;51.450;-2.624;2023-04-06T07:51:16;10.70;99.90
24148;DHT22;12309;51.450;-2.624;2023-04-06T07:53:44;10.80;99.90
24148;DHT22;12309;51.450;-2.624;2023-04-06T07:56:10;11.00;99.90
24148;DHT22;12309;51.450;-2.624;2023-04-06T07:58:35;11.10;99.90
24148;DHT22;12309;51.450;-2.624;2023-04-06T08:01:01;11.20;99.90
24148;DHT22;12309;51.450;-2.624;2023-04-06T08:03:27;11.20;99.90
24148;DHT22;12309;51.450;-2.624;2023-04-06T08:05:53;11.20;99.90
24148;DHT22;12309;51.450;-2.624;2023-04-06T08:08:19;11.50;99.90
24148;DHT22;12309;51.450;-2.624;2023-04-06T08:10:49;11.30;99.90
24148;DHT22;12309;51.450;-2.624;2023-04-06T08:13:15;11.50;99.90
24148;DHT22;12309;51.450;-2.624;2023-04-06T08:15:41;11.60;99.90
24148;DHT22;12309;51.450;-2.624;2023-04-06T08:18:08;12.60;99.90
24148;DHT22;12309;51.450;-2.624;2023-04-06T08:20:34;13.90;99.90
24148;DHT22;12309;51.450;-2.624;2023-04-06T08:23:00;13.80;99.90
24148;DHT22;12309;51.450;-2.624;2023-04-06T08:25:26;13.50;99.90
24148;DHT22;12309;51.450;-2.624;2023-04-06T08:27:51;13.60;99.90
24148;DHT22;12309;51.450;-2.624;2023-04-06T08:30:17;14.40;99.90
24148;DHT22;12309;51.450;-2.624;2023-04-06T08:32:47;15.10;99.90
24148;DHT22;12309;51.450;-2.624;2023-04-06T08:35:12;14.60;99.90
24148;DHT22;12309;51.450;-2.624;2023-04-06T08:37:39;13.50;99.90
24148;DHT22;12309;51.450;-2.624;2023-04-06T08:40:05;13.70;99.90
24148;DHT22;12309;51.450;-2.624;2023-04-06T08:42:39;14.20;99.90
24148;DHT22;12309;51.450;-2.624;2023-04-06T08:45:06;16.10;99.90
24148;DHT22;12309;51.450;-2.624;2023-04-06T08:47:32;16.60;99.90
24148;DHT22;12309;51.450;-2.624;2023-04-06T08:50:03;15.10;99.90
24148;DHT22;12309;51.450;-2.624;2023-04-06T08:52:31;15.30;99.90
24148;DHT22;12309;51.450;-2.624;2023-04-06T08:54:57;15.50;99.90
24148;DHT22;12309;51.450;-2.624;2023-04-06T08:57:24;14.90;99.90
24148;DHT22;12309;51.450;-2.624;2023-04-06T08:59:50;14.50;99.90
24148;DHT22;12309;51.450;-2.624;2023-04-06T09:02:18;14.90;99.90
24148;DHT22;12309;51.450;-2.624;2023-04-06T09:04:46;16.50;99.90
24148;DHT22;12309;51.450;-2.624;2023-04-06T09:07:14;16.60;99.90
24148;DHT22;12309;51.450;-2.624;2023-04-06T09:09:40;17.90;99.90
24148;DHT22;12309;51.450;-2.624;2023-04-06T09:12:22;18.30;99.90
24148;DHT22;12309;51.450;-2.624;2023-04-06T09:14:48;18.90;99.90
24148;DHT22;12309;51.450;-2.624;2023-04-06T09:17:27;18.10;99.90
24148;DHT22;12309;51.450;-2.624;2023-04-06T09:19:53;17.60;99.90
24148;DHT22;12309;51.450;-2.624;2023-04-06T09:22:19;17.80;99.90
24148;DHT22;12309;51.450;-2.624;2023-04-06T09:24:50;18.20;99.90
24148;DHT22;12309;51.450;-2.624;2023-04-06T09:27:16;18.20;99.90
24148;DHT22;12309;51.450;-2.624;2023-04-06T09:29:44;19.30;99.90
24148;DHT22;12309;51.450;-2.624;2023-04-06T09:32:11;20.70;99.90
24148;DHT22;12309;51.450;-2.624;2023-04-06T09:34:38;20.40;99.90
24148;DHT22;12309;51.450;-2.624;2023-04-06T09:37:17;20.20;99.90
24148;DHT22;12309;51.450;-2.624;2023-04-06T09:39:46;20.50;99.90
24148;DHT22;12309;51.450;-2.624;2023-04-06T09:42:23;21.00;99.90
24148;DHT22;12309;51.450;-2.624;2023-04-06T09:47:16;17.40;99.90
24148;DHT22;12309;51.450;-2.624;2023-04-06T09:49:43;17.00;99.90
24148;DHT22;12309;51.450;-2.624;2023-04-06T09:52:11;16.30;99.90
24148;DHT22;12309;51.450;-2.624;2023-04-06T09:54:38;15.90;99.90
24148;DHT22;12309;51.450;-2.624;2023-04-06T09:57:07;14.80;99.90
24148;DHT22;12309;51.450;-2.624;2023-04-06T10:02:25;14.60;99.90
24148;DHT22;12309;51.450;-2.624;2023-04-06T10:07:30;14.60;99.90
24148;DHT22;12309;51.450;-2.624;2023-04-06T10:09:57;14.50;99.90
24148;DHT22;12309;51.450;-2.624;2023-04-06T10:12:24;14.60;99.90
24148;DHT22;12309;51.450;-2.624;2023-04-06T10:14:49;14.60;99.90
24148;DHT22;12309;51.450;-2.624;2023-04-06T10:17:15;14.40;99.90
24148;DHT22;12309;51.450;-2.624;2023-04-06T10:22:08;14.10;99.90
24148;DHT22;12309;51.450;-2.624;2023-04-06T10:24:35;14.10;99.90
24148;DHT22;12309;51.450;-2.624;2023-04-06T10:27:02;15.00;99.90
24148;DHT22;12309;51.450;-2.624;2023-04-06T10:29:28;16.40;99.90
24148;DHT22;12309;51.450;-2.624;2023-04-06T10:32:05;16.60;99.90
24148;DHT22;12309;51.450;-2.624;2023-04-06T10:34:35;18.00;99.90
24148;DHT22;12309;51.450;-2.624;2023-04-06T10:37:13;18.40;99.90
24148;DHT22;12309;51.450;-2.624;2023-04-06T10:39:52;19.40;99.90
24148;DHT22;12309;51.450;-2.624;2023-04-06T10:42:24;18.00;99.90
24148;DHT22;12309;51.450;-2.624;2023-04-06T10:47:17;17.70;99.90
24148;DHT22;12309;51.450;-2.624;2023-04-06T10:49:43;17.40;99.90
24148;DHT22;12309;51.450;-2.624;2023-04-06T10:52:09;16.60;99.90
24148;DHT22;12309;51.450;-2.624;2023-04-06T10:54:41;16.60;99.90
24148;DHT22;12309;51.450;-2.624;2023-04-06T10:57:06;14.70;99.90
24148;DHT22;12309;51.450;-2.624;2023-04-06T10:59:32;14.70;99.90
24148;DHT22;12309;51.450;-2.624;2023-04-06T11:04:25;13.60;99.90
24148;DHT22;12309;51.450;-2.624;2023-04-06T11:06:50;13.30;99.90
24148;DHT22;12309;51.450;-2.624;2023-04-06T11:09:28;13.90;99.90
24148;DHT22;12309;51.450;-2.624;2023-04-06T11:11:54;15.20;99.90
24148;DHT22;12309;51.450;-2.624;2023-04-06T11:14:21;16.60;99.90
24148;DHT22;12309;51.450;-2.624;2023-04-06T11:16:47;16.80;99.90
24148;DHT22;12309;51.450;-2.624;2023-04-06T11:19:16;17.50;99.90
24148;DHT22;12309;51.450;-2.624;2023-04-06T11:21:47;17.90;99.90
24148;DHT22;12309;51.450;-2.624;2023-04-06T11:24:24;17.90;99.90
24148;DHT22;12309;51.450;-2.624;2023-04-06T11:26:55;17.90;99.90
24148;DHT22;12309;51.450;-2.624;2023-04-06T11:29:26;18.30;99.90
24148;DHT22;12309;51.450;-2.624;2023-04-06T11:32:00;18.80;99.90
24148;DHT22;12309;51.450;-2.624;2023-04-06T11:34:27;19.00;99.90
24148;DHT22;12309;51.450;-2.624;2023-04-06T11:37:01;19.60;99.90
24148;DHT22;12309;51.450;-2.624;2023-04-06T11:39:29;19.90;99.90
24148;DHT22;12309;51.450;-2.624;2023-04-06T11:41:59;19.90;99.90
24148;DHT22;12309;51.450;-2.624;2023-04-06T11:44:36;19.90;99.90
24148;DHT22;12309;51.450;-2.624;2023-04-06T11:47:06;20.50;99.90
24148;DHT22;12309;51.450;-2.624;2023-04-06T11:49:36;20.90;99.90
24148;DHT22;12309;51.450;-2.624;2023-04-06T11:52:02;21.00;99.90
24148;DHT22;12309;51.450;-2.624;2023-04-06T11:54:35;21.30;99.90
24148;DHT22;12309;51.450;-2.624;2023-04-06T11:57:03;21.30;99.90
24148;DHT22;12309;51.450;-2.624;2023-04-06T11:59:29;21.60;99.90
24148;DHT22;12309;51.450;-2.624;2023-04-06T12:01:56;21.40;99.90
24148;DHT22;12309;51.450;-2.624;2023-04-06T12:04:22;20.40;99.90
24148;DHT22;12309;51.450;-2.624;2023-04-06T12:06:48;19.50;99.90
24148;DHT22;12309;51.450;-2.624;2023-04-06T12:09:13;19.80;99.90
24148;DHT22;12309;51.450;-2.624;2023-04-06T12:14:06;18.60;99.90
24148;DHT22;12309;51.450;-2.624;2023-04-06T12:16:33;18.90;99.90
24148;DHT22;12309;51.450;-2.624;2023-04-06T12:19:00;19.90;99.90
24148;DHT22;12309;51.450;-2.624;2023-04-06T12:21:27;20.20;99.90
24148;DHT22;12309;51.450;-2.624;2023-04-06T12:23:53;20.10;99.90
24148;DHT22;12309;51.450;-2.624;2023-04-06T12:26:19;20.90;99.90
24148;DHT22;12309;51.450;-2.624;2023-04-06T12:28:45;21.00;99.90
24148;DHT22;12309;51.450;-2.624;2023-04-06T12:31:15;21.20;99.90
24148;DHT22;12309;51.450;-2.624;2023-04-06T12:33:41;20.20;99.90
24148;DHT22;12309;51.450;-2.624;2023-04-06T12:36:15;20.20;99.90
24148;DHT22;12309;51.450;-2.624;2023-04-06T12:38:41;19.20;99.90
24148;DHT22;12309;51.450;-2.624;2023-04-06T12:41:07;19.00;99.90
24148;DHT22;12309;51.450;-2.624;2023-04-06T12:43:33;19.60;99.90
24148;DHT22;12309;51.450;-2.624;2023-04-06T12:45:59;19.40;99.90
24148;DHT22;12309;51.450;-2.624;2023-04-06T12:48:25;18.70;99.90
24148;DHT22;12309;51.450;-2.624;2023-04-06T12:50:59;17.90;99.90
24148;DHT22;12309;51.450;-2.624;2023-04-06T12:53:26;16.40;99.90
24148;DHT22;12309;51.450;-2.624;2023-04-06T12:55:54;15.50;99.90
24148;DHT22;12309;51.450;-2.624;2023-04-06T12:58:19;14.60;99.90
24148;DHT22;12309;51.450;-2.624;2023-04-06T13:00:47;13.70;99.90
24148;DHT22;12309;51.450;-2.624;2023-04-06T13:03:12;13.60;99.90
24148;DHT22;12309;51.450;-2.624;2023-04-06T13:05:44;13.70;99.90
24148;DHT22;12309;51.450;-2.624;2023-04-06T13:08:11;16.50;99.90
24148;DHT22;12309;51.450;-2.624;2023-04-06T13:10:36;13.80;99.90
24148;DHT22;12309;51.450;-2.624;2023-04-06T13:13:02;13.20;99.90
24148;DHT22;12309;51.450;-2.624;2023-04-06T13:15:28;13.00;99.90
24148;DHT22;12309;51.450;-2.624;2023-04-06T13:17:54;13.10;99.90
24148;DHT22;12309;51.450;-2.624;2023-04-06T13:20:19;13.10;99.90
24148;DHT22;12309;51.450;-2.624;2023-04-06T13:22:45;13.50;99.90
24148;DHT22;12309;51.450;-2.624;2023-04-06T13:25:11;13.50;99.90
24148;DHT22;12309;51.450;-2.624;2023-04-06T13:27:36;13.60;99.90
24148;DHT22;12309;51.450;-2.624;2023-04-06T13:30:03;13.60;99.90
24148;DHT22;12309;51.450;-2.624;2023-04-06T13:32:29;13.70;99.90
24148;DHT22;12309;51.450;-2.624;2023-04-06T13:34:55;13.40;99.90
24148;DHT22;12309;51.450;-2.624;2023-04-06T13:37:21;13.30;99.90
24148;DHT22;12309;51.450;-2.624;2023-04-06T13:42:12;13.20;99.90
24148;DHT22;12309;51.450;-2.624;2023-04-06T13:44:38;13.00;99.90
24148;DHT22;12309;51.450;-2.624;2023-04-06T13:47:04;13.00;99.90
24148;DHT22;12309;51.450;-2.624;2023-04-06T13:49:29;13.50;99.90
24148;DHT22;12309;51.450;-2.624;2023-04-06T13:54:21;14.20;99.90
24148;DHT22;12309;51.450;-2.624;2023-04-06T13:56:47;15.60;99.90
24148;DHT22;12309;51.450;-2.624;2023-04-06T14:01:38;18.40;99.90
24148;DHT22;12309;51.450;-2.624;2023-04-06T14:04:04;19.10;99.90
24148;DHT22;12309;51.450;-2.624;2023-04-06T14:06:30;18.80;99.90
24148;DHT22;12309;51.450;-2.624;2023-04-06T14:08:55;18.80;99.90
24148;DHT22;12309;51.450;-2.624;2023-04-06T14:16:14;20.20;99.90
24148;DHT22;12309;51.450;-2.624;2023-04-06T14:18:40;20.10;99.90
24148;DHT22;12309;51.450;-2.624;2023-04-06T14:21:06;19.40;99.90
24148;DHT22;12309;51.450;-2.624;2023-04-06T14:23:31;19.70;99.90
24148;DHT22;12309;51.450;-2.624;2023-04-06T14:26:02;19.00;99.90
24148;DHT22;12309;51.450;-2.624;2023-04-06T14:28:29;18.90;99.90
24148;DHT22;12309;51.450;-2.624;2023-04-06T14:30:54;19.20;99.90
24148;DHT22;12309;51.450;-2.624;2023-04-06T14:33:20;18.50;99.90
24148;DHT22;12309;51.450;-2.624;2023-04-06T14:35:45;15.90;99.90
24148;DHT22;12309;51.450;-2.624;2023-04-06T14:38:11;15.90;99.90
24148;DHT22;12309;51.450;-2.624;2023-04-06T14:40:37;14.30;99.90
24148;DHT22;12309;51.450;-2.624;2023-04-06T14:43:03;14.30;99.90
24148;DHT22;12309;51.450;-2.624;2023-04-06T14:45:29;16.60;99.90
24148;DHT22;12309;51.450;-2.624;2023-04-06T14:47:55;16.70;99.90
24148;DHT22;12309;51.450;-2.624;2023-04-06T14:52:46;17.90;99.90
24148;DHT22;12309;51.450;-2.624;2023-04-06T14:55:12;18.40;99.90
24148;DHT22;12309;51.450;-2.624;2023-04-06T14:57:38;18.40;99.90
24148;DHT22;12309;51.450;-2.624;2023-04-06T15:00:03;17.20;99.90
24148;DHT22;12309;51.450;-2.624;2023-04-06T15:02:29;16.30;99.90
24148;DHT22;12309;51.450;-2.624;2023-04-06T15:04:57;15.80;99.90
24148;DHT22;12309;51.450;-2.624;2023-04-06T15:07:22;14.80;99.90
24148;DHT22;12309;51.450;-2.624;2023-04-06T15:09:48;15.10;99.90
24148;DHT22;12309;51.450;-2.624;2023-04-06T15:12:13;15.40;99.90
24148;DHT22;12309;51.450;-2.624;2023-04-06T15:17:05;17.10;99.90
24148;DHT22;12309;51.450;-2.624;2023-04-06T15:19:31;17.90;99.90
24148;DHT22;12309;51.450;-2.624;2023-04-06T15:24:22;18.70;99.90
24148;DHT22;12309;51.450;-2.624;2023-04-06T15:26:48;18.70;99.90
24148;DHT22;12309;51.450;-2.624;2023-04-06T15:29:14;18.20;99.90
24148;DHT22;12309;51.450;-2.624;2023-04-06T15:31:39;17.30;99.90
24148;DHT22;12309;51.450;-2.624;2023-04-06T15:34:06;16.30;99.90
24148;DHT22;12309;51.450;-2.624;2023-04-06T15:36:35;15.80;99.90
24148;DHT22;12309;51.450;-2.624;2023-04-06T15:39:00;15.10;99.90
24148;DHT22;12309;51.450;-2.624;2023-04-06T15:41:26;14.70;99.90
24148;DHT22;12309;51.450;-2.624;2023-04-06T15:43:53;15.10;99.90
24148;DHT22;12309;51.450;-2.624;2023-04-06T15:46:19;16.00;99.90
24148;DHT22;12309;51.450;-2.624;2023-04-06T15:48:45;16.70;99.90
24148;DHT22;12309;51.450;-2.624;2023-04-06T15:51:11;17.70;99.90
24148;DHT22;12309;51.450;-2.624;2023-04-06T15:53:37;19.10;99.90
24148;DHT22;12309;51.450;-2.624;2023-04-06T15:56:04;18.90;99.90
24148;DHT22;12309;51.450;-2.624;2023-04-06T15:58:32;19.80;99.90
24148;DHT22;12309;51.450;-2.624;2023-04-06T16:00:57;19.80;99.90
24148;DHT22;12309;51.450;-2.624;2023-04-06T16:03:23;18.00;99.90
24148;DHT22;12309;51.450;-2.624;2023-04-06T16:05:49;18.10;99.90
24148;DHT22;12309;51.450;-2.624;2023-04-06T16:08:15;17.70;99.90
24148;DHT22;12309;51.450;-2.624;2023-04-06T16:10:41;17.10;99.90
24148;DHT22;12309;51.450;-2.624;2023-04-06T16:13:07;16.00;99.90
24148;DHT22;12309;51.450;-2.624;2023-04-06T16:15:36;15.40;99.90
24148;DHT22;12309;51.450;-2.624;2023-04-06T16:18:02;14.90;99.90
24148;DHT22;12309;51.450;-2.624;2023-04-06T16:20:29;14.60;99.90
24148;DHT22;12309;51.450;-2.624;2023-04-06T16:22:55;14.30;99.90
24148;DHT22;12309;51.450;-2.624;2023-04-06T16:25:21;14.20;99.90
24148;DHT22;12309;51.450;-2.624;2023-04-06T16:27:46;13.90;99.90
24148;DHT22;12309;51.450;-2.624;2023-04-06T16:30:12;13.80;99.90
24148;DHT22;12309;51.450;-2.624;2023-04-06T16:32:38;13.50;99.90